PWSweather.com
Personal Weather Stations
Station Observations
ENZIAN1
Bad KleinkirchheimAT 9546

Bad KleinkirchheimAT 9546

Lat: 46.814813, Lon: 13.800813800000014

Elevation: 3540

Station Type: Netatmo weatherstation

Latest ConditionsUpdated 1:00:00 PM GMT+01:01 Sunday, Dec 15, 2019
Currently Today's Max Today's Min Today's Average
Temperature 39.0°F3.9°C 39.0°F3.9°C 19.4°F-7.0°C 25.4°F-3.7°C
Dew Point 28.8°F-1.8°C 29.7°F-1.3°C 14.2°F-9.9°C 20.1°F-6.6°C
Winds 2.5 mph SW4.0 kmh SW 2.5 mph -4.0 kmh - - 1.8 mph 2.9 kmh
Wind Gusts 6.3 mph10.1 kmh 6.3 mph10.1 kmh - -
Humidity 72% 90% 72% 85%
Pressure 29.89 in1012.2 mb 29.91 in1012.9 mb 29.83 in1010.2 mb -
Hour Temp Dew Point Humidity Winds Wind Gusts Pressure Precip Precip Rate Daily Precip Total
01:00 PM 39.0°F3.9°C 28.8°F-1.8°C 72% 2.5 mph SW4.0 kmh SW 6.3 mph10.1 kmh 29.89 in1012.2 mb 0.00 in0.0 mm 0.00 in0.0 mm 0.00 in0.0 mm
12:40 PM 38.8°F3.8°C 29.7°F-1.3°C 75% 2.5 mph WSW4.0 kmh WSW 5.6 mph9.0 kmh 29.90 in1012.5 mb 0.00 in0.0 mm 0.00 in0.0 mm 0.00 in0.0 mm
12:30 PM 38.3°F3.5°C 29.5°F-1.4°C 76% 1.8 mph WSW2.9 kmh WSW 6.3 mph10.1 kmh 29.89 in1012.2 mb 0.00 in0.0 mm 0.00 in0.0 mm 0.00 in0.0 mm
12:10 PM 37.2°F2.9°C 28.9°F-1.7°C 77% 1.8 mph SW2.9 kmh SW 3.8 mph6.1 kmh 29.91 in1012.9 mb 0.00 in0.0 mm 0.00 in0.0 mm 0.00 in0.0 mm
11:49 AM 36.1°F2.3°C 28.6°F-1.9°C 79% 1.8 mph WSW2.9 kmh WSW 3.1 mph5.0 kmh 29.90 in1012.5 mb 0.00 in0.0 mm 0.00 in0.0 mm 0.00 in0.0 mm
11:30 AM 35.2°F1.8°C 28.4°F-2.0°C 81% 1.8 mph SSW2.9 kmh SSW 3.8 mph6.1 kmh 29.90 in1012.5 mb 0.00 in0.0 mm 0.00 in0.0 mm 0.00 in0.0 mm
11:09 AM 34.0°F1.1°C 27.9°F-2.3°C 83% 1.8 mph SW2.9 kmh SW 4.9 mph7.9 kmh 29.90 in1012.5 mb 0.00 in0.0 mm 0.00 in0.0 mm 0.00 in0.0 mm
10:49 AM 32.4°F0.2°C 27.0°F-2.8°C 85% 0.7 mph SSW1.1 kmh SSW 3.1 mph5.0 kmh 29.90 in1012.5 mb 0.00 in0.0 mm 0.00 in0.0 mm 0.00 in0.0 mm
10:29 AM 31.1°F-0.5°C 26.1°F-3.3°C 86% 0.7 mph W1.1 kmh W 2.5 mph4.0 kmh 29.90 in1012.5 mb 0.00 in0.0 mm 0.00 in0.0 mm 0.00 in0.0 mm
10:09 AM 29.7°F-1.3°C 25.7°F-3.5°C 89% 2.5 mph SW4.0 kmh SW 4.9 mph7.9 kmh 29.91 in1012.9 mb 0.00 in0.0 mm 0.00 in0.0 mm 0.00 in0.0 mm
09:49 AM 27.9°F-2.3°C 23.9°F-4.5°C 89% 2.5 mph SW4.0 kmh SW 3.8 mph6.1 kmh 29.89 in1012.2 mb 0.00 in0.0 mm 0.00 in0.0 mm 0.00 in0.0 mm
09:28 AM 26.4°F-3.1°C 22.5°F-5.3°C 89% - N N -- 29.89 in1012.2 mb 0.00 in0.0 mm 0.00 in0.0 mm 0.00 in0.0 mm
09:07 AM 25.5°F-3.6°C 21.7°F-5.7°C 89% 2.5 mph SW4.0 kmh SW 3.8 mph6.1 kmh 29.89 in1012.2 mb 0.00 in0.0 mm 0.00 in0.0 mm 0.00 in0.0 mm
08:47 AM 24.6°F-4.1°C 20.5°F-6.4°C 88% 2.5 mph SW4.0 kmh SW 3.8 mph6.1 kmh 29.88 in1011.9 mb 0.00 in0.0 mm 0.00 in0.0 mm 0.00 in0.0 mm
08:27 AM 24.4°F-4.2°C 20.3°F-6.5°C 88% 1.8 mph SW2.9 kmh SW 3.1 mph5.0 kmh 29.89 in1012.2 mb 0.00 in0.0 mm 0.00 in0.0 mm 0.00 in0.0 mm
08:07 AM 24.6°F-4.1°C 20.5°F-6.4°C 88% 1.8 mph WSW2.9 kmh WSW 2.5 mph4.0 kmh 29.88 in1011.9 mb 0.00 in0.0 mm 0.00 in0.0 mm 0.00 in0.0 mm
07:47 AM 25.0°F-3.9°C 21.2°F-6.0°C 89% 1.8 mph SW2.9 kmh SW 2.5 mph4.0 kmh 29.88 in1011.9 mb 0.00 in0.0 mm 0.00 in0.0 mm 0.00 in0.0 mm
07:21 AM 25.2°F-3.8°C 21.6°F-5.8°C 90% - N N -- 29.89 in1012.2 mb 0.00 in0.0 mm 0.00 in0.0 mm 0.00 in0.0 mm
07:01 AM 23.7°F-4.6°C 20.3°F-6.5°C 90% - N N -- 29.89 in1012.2 mb 0.00 in0.0 mm 0.00 in0.0 mm 0.00 in0.0 mm
06:41 AM 22.5°F-5.3°C 18.3°F-7.6°C 88% - N N -- 29.88 in1011.9 mb 0.00 in0.0 mm 0.00 in0.0 mm 0.00 in0.0 mm
06:20 AM 21.7°F-5.7°C 17.6°F-8.0°C 88% 1.8 mph SW2.9 kmh SW 2.5 mph4.0 kmh 29.87 in1011.5 mb 0.00 in0.0 mm 0.00 in0.0 mm 0.00 in0.0 mm
06:00 AM 21.2°F-6.0°C 16.7°F-8.5°C 87% 1.8 mph SW2.9 kmh SW 2.5 mph4.0 kmh 29.86 in1011.2 mb 0.00 in0.0 mm 0.00 in0.0 mm 0.00 in0.0 mm
05:40 AM 20.7°F-6.3°C 16.2°F-8.8°C 87% 1.8 mph SW2.9 kmh SW 2.5 mph4.0 kmh 29.85 in1010.8 mb 0.00 in0.0 mm 0.00 in0.0 mm 0.00 in0.0 mm
05:20 AM 19.9°F-6.7°C 15.1°F-9.4°C 86% 1.8 mph WSW2.9 kmh WSW 3.1 mph5.0 kmh 29.85 in1010.8 mb 0.00 in0.0 mm 0.00 in0.0 mm 0.00 in0.0 mm
05:10 AM 19.8°F-6.8°C 14.5°F-9.7°C 85% 2.5 mph SW4.0 kmh SW 3.1 mph5.0 kmh 29.86 in1011.2 mb 0.00 in0.0 mm 0.00 in0.0 mm 0.00 in0.0 mm
04:44 AM 19.4°F-7.0°C 14.2°F-9.9°C 85% 2.5 mph SW4.0 kmh SW 3.1 mph5.0 kmh 29.86 in1011.2 mb 0.00 in0.0 mm 0.00 in0.0 mm 0.00 in0.0 mm
04:23 AM 19.6°F-6.9°C 14.4°F-9.8°C 85% 2.5 mph SW4.0 kmh SW 3.1 mph5.0 kmh 29.86 in1011.2 mb 0.00 in0.0 mm 0.00 in0.0 mm 0.00 in0.0 mm
04:04 AM 19.8°F-6.8°C 14.5°F-9.7°C 85% 0.7 mph SW1.1 kmh SW 2.5 mph4.0 kmh 29.86 in1011.2 mb 0.00 in0.0 mm 0.00 in0.0 mm 0.00 in0.0 mm
03:47 AM 19.8°F-6.8°C 14.5°F-9.7°C 85% - N N -- 29.86 in1011.2 mb 0.00 in0.0 mm 0.00 in0.0 mm 0.00 in0.0 mm
03:27 AM 19.9°F-6.7°C 14.7°F-9.6°C 85% - N N -- 29.86 in1011.2 mb 0.00 in0.0 mm 0.00 in0.0 mm 0.00 in0.0 mm
03:07 AM 19.9°F-6.7°C 14.7°F-9.6°C 85% - N N -- 29.86 in1011.2 mb 0.00 in0.0 mm 0.00 in0.0 mm 0.00 in0.0 mm
02:46 AM 19.8°F-6.8°C 14.5°F-9.7°C 85% - N N -- 29.85 in1010.8 mb 0.00 in0.0 mm 0.00 in0.0 mm 0.00 in0.0 mm
02:26 AM 20.1°F-6.6°C 14.5°F-9.7°C 84% Calm Calm 1.8 mph2.9 kmh 29.86 in1011.2 mb 0.00 in0.0 mm 0.00 in0.0 mm 0.00 in0.0 mm
02:06 AM 20.3°F-6.5°C 15.1°F-9.4°C 85% Calm Calm 1.8 mph2.9 kmh 29.85 in1010.8 mb 0.00 in0.0 mm 0.00 in0.0 mm 0.00 in0.0 mm
01:48 AM 20.7°F-6.3°C 15.4°F-9.2°C 85% - N N -- 29.84 in1010.5 mb 0.00 in0.0 mm 0.00 in0.0 mm 0.00 in0.0 mm
01:27 AM 20.8°F-6.2°C 15.6°F-9.1°C 85% - N N -- 29.84 in1010.5 mb 0.00 in0.0 mm 0.00 in0.0 mm 0.00 in0.0 mm
01:08 AM 21.0°F-6.1°C 15.4°F-9.2°C 84% - N N -- 29.83 in1010.2 mb 0.00 in0.0 mm 0.00 in0.0 mm 0.00 in0.0 mm
12:47 AM 21.6°F-5.8°C 16.3°F-8.7°C 85% - N N -- 29.83 in1010.2 mb 0.00 in0.0 mm 0.00 in0.0 mm 0.00 in0.0 mm
12:28 AM 21.9°F-5.6°C 16.7°F-8.5°C 85% - N N -- 29.83 in1010.2 mb 0.00 in0.0 mm 0.00 in0.0 mm 0.00 in0.0 mm